createdAt,value
2023-03-26T00:01:47.296Z,24.70
2023-03-26T00:04:19.665Z,20.53
2023-03-26T00:06:48.869Z,11.97
2023-03-26T00:09:17.870Z,23.67
2023-03-26T00:11:47.550Z,20.93
2023-03-26T00:14:17.793Z,23.90
2023-03-26T00:16:47.464Z,25.47
2023-03-26T00:19:15.663Z,21.87
2023-03-26T00:21:43.425Z,24.93
2023-03-26T00:24:15.055Z,18.00
2023-03-26T00:26:43.670Z,20.40
2023-03-26T00:29:13.928Z,17.00
2023-03-26T00:31:46.501Z,21.57
2023-03-26T00:34:15.691Z,19.87
2023-03-26T00:36:44.021Z,25.43
2023-03-26T00:39:11.908Z,21.97
2023-03-26T00:41:43.200Z,20.67
2023-03-26T00:44:12.657Z,16.30
2023-03-26T00:46:40.942Z,19.40
2023-03-26T00:49:10.980Z,20.67
2023-03-26T00:51:39.614Z,18.53
2023-03-26T00:54:08.238Z,21.17
2023-03-26T00:56:36.061Z,21.07
2023-03-26T00:59:04.027Z,27.07
2023-03-26T01:01:33.740Z,20.03
2023-03-26T01:04:24.118Z,12.50
2023-03-26T01:06:52.234Z,22.27
2023-03-26T01:09:21.971Z,21.17
2023-03-26T01:11:50.970Z,26.63
2023-03-26T01:14:21.277Z,22.57
2023-03-26T01:16:55.134Z,16.00
2023-03-26T01:19:30.478Z,23.17
2023-03-26T01:22:00.738Z,19.93
2023-03-26T01:24:29.950Z,20.53
2023-03-26T01:27:17.927Z,18.47
2023-03-26T01:29:52.657Z,20.27
2023-03-26T01:32:31.042Z,18.37
2023-03-26T01:35:12.447Z,20.77
2023-03-26T01:37:52.611Z,20.00
2023-03-26T01:40:26.995Z,22.37
2023-03-26T01:43:04.712Z,23.30
2023-03-26T01:45:37.027Z,20.90
2023-03-26T01:48:05.695Z,24.47
2023-03-26T01:50:33.592Z,22.83
2023-03-26T01:53:02.252Z,22.37
2023-03-26T01:55:38.909Z,20.80
2023-03-26T01:58:15.462Z,25.87
2023-03-26T02:00:49.192Z,22.00
2023-03-26T02:03:26.450Z,17.87
2023-03-26T02:05:58.585Z,19.77
2023-03-26T02:08:35.544Z,15.77
2023-03-26T02:11:11.458Z,29.13
2023-03-26T02:13:41.019Z,20.47
2023-03-26T02:16:12.430Z,18.17
2023-03-26T02:18:40.250Z,24.10
2023-03-26T02:21:12.355Z,17.53
2023-03-26T02:23:40.582Z,20.60
2023-03-26T02:26:12.319Z,23.83
2023-03-26T02:28:40.195Z,17.97
2023-03-26T02:31:09.779Z,17.20
2023-03-26T02:33:38.414Z,15.97
2023-03-26T02:36:08.546Z,17.43
2023-03-26T02:38:36.860Z,17.83
2023-03-26T02:41:05.097Z,22.53
2023-03-26T02:43:34.380Z,18.67
2023-03-26T02:46:03.319Z,24.10
2023-03-26T02:48:31.443Z,14.30
2023-03-26T02:50:59.239Z,21.20
2023-03-26T02:53:30.341Z,22.60
2023-03-26T02:55:58.369Z,19.10
2023-03-26T02:58:26.891Z,14.63
2023-03-26T03:00:56.330Z,17.93
2023-03-26T03:03:24.961Z,17.00
2023-03-26T03:05:53.398Z,21.00
2023-03-26T03:08:22.667Z,12.23
2023-03-26T03:10:57.732Z,16.03
2023-03-26T03:13:26.130Z,15.60
2023-03-26T03:15:54.290Z,17.23
2023-03-26T03:18:23.620Z,20.23
2023-03-26T03:20:51.945Z,18.67
2023-03-26T03:23:19.732Z,20.43
2023-03-26T03:25:48.797Z,18.37
2023-03-26T03:28:18.276Z,15.50
2023-03-26T03:30:47.095Z,16.67
2023-03-26T03:33:15.093Z,15.80
2023-03-26T03:35:46.038Z,17.57
2023-03-26T03:38:14.025Z,14.47
2023-03-26T03:40:41.876Z,14.77
2023-03-26T03:43:09.815Z,14.10
2023-03-26T03:45:37.849Z,15.73
2023-03-26T03:48:06.290Z,14.63
2023-03-26T03:50:35.787Z,14.07
2023-03-26T03:53:05.767Z,14.03
2023-03-26T03:55:33.661Z,14.97
2023-03-26T03:58:01.510Z,18.27
2023-03-26T04:00:30.742Z,15.70
2023-03-26T04:02:58.806Z,6.00
2023-03-26T04:05:26.659Z,14.17
2023-03-26T04:07:54.521Z,8.83
2023-03-26T04:10:23.735Z,14.27
2023-03-26T04:12:51.560Z,14.03
2023-03-26T04:15:19.694Z,16.30
2023-03-26T04:17:47.490Z,18.00
2023-03-26T04:20:15.856Z,14.27
2023-03-26T04:22:43.963Z,12.53
2023-03-26T04:25:12.235Z,12.67
2023-03-26T04:27:43.362Z,12.87
2023-03-26T04:30:16.660Z,12.17
2023-03-26T04:32:44.764Z,14.27
2023-03-26T04:35:14.749Z,13.60
2023-03-26T04:37:44.487Z,12.17
2023-03-26T04:40:16.564Z,16.03
2023-03-26T04:42:46.680Z,14.80
2023-03-26T04:45:15.712Z,11.30
2023-03-26T04:47:43.526Z,16.80
2023-03-26T04:50:12.600Z,10.57
2023-03-26T04:52:42.014Z,12.80
2023-03-26T04:55:23.153Z,10.67
2023-03-26T04:57:57.523Z,15.23
2023-03-26T05:00:25.508Z,18.87
2023-03-26T05:02:56.217Z,12.07
2023-03-26T05:05:24.599Z,19.73
2023-03-26T05:07:52.477Z,13.63
2023-03-26T05:10:21.431Z,9.73
2023-03-26T05:12:52.379Z,11.47
2023-03-26T05:15:21.716Z,8.97
2023-03-26T05:17:49.498Z,13.00
2023-03-26T05:20:20.948Z,16.03
2023-03-26T05:22:49.928Z,8.63
2023-03-26T05:25:18.571Z,15.97
2023-03-26T05:27:47.117Z,12.90
2023-03-26T05:30:16.697Z,14.30
2023-03-26T05:32:46.187Z,11.13
2023-03-26T05:35:16.928Z,8.50
2023-03-26T05:37:45.539Z,12.37
2023-03-26T05:40:15.242Z,15.07
2023-03-26T05:42:43.357Z,13.17
2023-03-26T05:45:14.330Z,11.63
2023-03-26T05:47:42.503Z,15.17
2023-03-26T05:50:12.388Z,14.07
2023-03-26T05:52:40.478Z,16.60
2023-03-26T05:55:09.159Z,8.67
2023-03-26T05:57:37.657Z,13.93
2023-03-26T06:00:08.987Z,13.33
2023-03-26T06:02:37.057Z,14.70
2023-03-26T06:05:05.610Z,14.90
2023-03-26T06:07:35.131Z,11.43
2023-03-26T06:10:03.564Z,13.30
2023-03-26T06:12:31.428Z,14.37
2023-03-26T06:14:59.285Z,14.20
2023-03-26T06:17:27.371Z,17.13
2023-03-26T06:19:55.313Z,14.63
2023-03-26T06:22:23.153Z,9.13
2023-03-26T06:24:53.063Z,13.67
2023-03-26T06:27:20.866Z,15.43
2023-03-26T06:29:49.164Z,17.33
2023-03-26T06:32:20.005Z,9.73
2023-03-26T06:34:48.369Z,12.30
2023-03-26T06:37:16.195Z,17.77
2023-03-26T06:39:44.111Z,11.93
2023-03-26T06:42:13.302Z,17.57
2023-03-26T06:44:41.076Z,14.30
2023-03-26T06:47:08.985Z,10.80
2023-03-26T06:49:38.215Z,14.30
2023-03-26T06:52:06.528Z,10.00
2023-03-26T06:54:34.303Z,12.33
2023-03-26T06:57:02.220Z,10.17
2023-03-26T06:59:31.575Z,10.27
2023-03-26T07:01:59.463Z,10.47
2023-03-26T07:04:27.389Z,10.63
2023-03-26T07:06:55.927Z,8.70
2023-03-26T07:09:23.736Z,11.93
2023-03-26T07:11:51.675Z,9.50
2023-03-26T07:14:19.535Z,13.30
2023-03-26T07:16:48.804Z,13.43
2023-03-26T07:19:16.927Z,11.40
2023-03-26T07:21:46.601Z,7.27
2023-03-26T07:24:15.555Z,9.73
2023-03-26T07:26:52.992Z,7.67
2023-03-26T07:29:32.381Z,10.17
2023-03-26T07:32:09.120Z,9.87
2023-03-26T07:34:51.487Z,8.63
2023-03-26T07:37:33.979Z,5.83
2023-03-26T07:40:06.071Z,8.53
2023-03-26T07:42:51.360Z,9.17
2023-03-26T07:45:27.086Z,9.73
2023-03-26T07:47:57.145Z,13.60
2023-03-26T07:50:26.510Z,10.53
2023-03-26T07:52:54.812Z,11.23
2023-03-26T07:55:23.136Z,12.93
2023-03-26T07:58:00.715Z,8.90
2023-03-26T08:00:36.183Z,10.00
2023-03-26T08:03:31.330Z,9.83
2023-03-26T08:06:10.397Z,10.93
2023-03-26T08:08:46.242Z,11.13
2023-03-26T08:11:27.338Z,11.93
2023-03-26T08:14:04.751Z,9.93
2023-03-26T08:16:38.472Z,9.10
2023-03-26T08:19:18.084Z,7.20
2023-03-26T08:21:51.080Z,6.77
2023-03-26T08:24:23.948Z,6.27
2023-03-26T08:27:00.170Z,10.90
2023-03-26T08:29:34.542Z,7.37
2023-03-26T08:32:05.093Z,9.10
2023-03-26T08:34:34.300Z,8.67
2023-03-26T08:37:02.507Z,12.40
2023-03-26T08:39:30.330Z,9.40
2023-03-26T08:42:38.659Z,13.30
2023-03-26T08:45:39.842Z,8.03
2023-03-26T08:48:51.837Z,8.30
2023-03-26T08:51:58.135Z,10.90
2023-03-26T08:55:06.213Z,5.63
2023-03-26T08:58:11.140Z,12.33
2023-03-26T09:00:50.394Z,10.17
2023-03-26T09:03:47.643Z,11.93
2023-03-26T09:06:44.377Z,10.27
2023-03-26T09:09:45.687Z,13.23
2023-03-26T09:12:36.503Z,8.57
2023-03-26T09:15:41.121Z,6.37
2023-03-26T09:18:41.013Z,8.83
2023-03-26T09:21:39.222Z,4.47
2023-03-26T09:24:46.697Z,8.17
2023-03-26T09:27:38.139Z,5.57
2023-03-26T09:30:32.577Z,5.53
2023-03-26T09:33:32.656Z,3.33
2023-03-26T09:36:19.530Z,4.53
2023-03-26T09:38:54.231Z,8.10
2023-03-26T09:41:36.679Z,4.17
2023-03-26T09:44:34.230Z,3.03
2023-03-26T09:47:25.754Z,3.53
2023-03-26T09:50:10.379Z,6.43
2023-03-26T09:53:05.329Z,8.53
2023-03-26T09:55:54.426Z,7.57
2023-03-26T09:58:42.986Z,5.30
2023-03-26T10:01:18.424Z,9.53
2023-03-26T10:03:59.238Z,5.03
2023-03-26T10:06:51.731Z,4.47
2023-03-26T10:09:35.372Z,9.53
2023-03-26T10:12:23.492Z,6.77
2023-03-26T10:15:02.981Z,6.77
2023-03-26T10:17:44.251Z,7.03
2023-03-26T10:20:34.057Z,8.90
2023-03-26T10:23:15.878Z,9.00
2023-03-26T10:25:54.905Z,9.20
2023-03-26T10:28:39.101Z,8.40
2023-03-26T10:31:23.023Z,9.43
2023-03-26T10:34:02.385Z,8.43
2023-03-26T10:36:33.623Z,7.40
2023-03-26T10:39:37.315Z,10.80
2023-03-26T10:42:21.413Z,14.00
2023-03-26T10:45:05.191Z,11.47
2023-03-26T10:47:56.057Z,12.27
2023-03-26T10:50:52.529Z,11.83
2023-03-26T10:53:32.389Z,12.03
2023-03-26T10:56:13.639Z,9.83
2023-03-26T10:58:48.440Z,10.83
2023-03-26T11:01:29.874Z,9.33
2023-03-26T11:04:02.694Z,8.57
2023-03-26T11:06:41.972Z,8.30
2023-03-26T11:09:22.613Z,6.43
2023-03-26T11:11:58.523Z,6.33
2023-03-26T11:14:35.268Z,6.83
2023-03-26T11:17:14.477Z,7.97
2023-03-26T11:20:06.271Z,6.70
2023-03-26T11:22:47.579Z,6.57
2023-03-26T11:25:36.130Z,7.47
2023-03-26T11:28:24.980Z,8.47
2023-03-26T11:31:00.624Z,7.67
2023-03-26T11:33:33.987Z,6.17
2023-03-26T11:36:07.327Z,6.77
2023-03-26T11:38:38.867Z,9.10
2023-03-26T11:41:14.119Z,10.17
2023-03-26T11:43:49.571Z,6.90
2023-03-26T11:46:20.519Z,17.73
2023-03-26T11:48:50.911Z,7.90
2023-03-26T11:51:24.736Z,8.93
2023-03-26T11:53:54.525Z,9.10
2023-03-26T11:56:29.232Z,8.80
2023-03-26T11:59:05.400Z,8.13
2023-03-26T12:01:50.489Z,5.53
2023-03-26T12:04:20.691Z,10.17
2023-03-26T12:06:56.543Z,8.37
2023-03-26T12:09:25.856Z,9.63
2023-03-26T12:12:00.435Z,10.93
2023-03-26T12:14:31.787Z,11.03
2023-03-26T12:17:05.234Z,6.70
2023-03-26T12:19:39.494Z,9.93
2023-03-26T12:22:08.390Z,9.40
2023-03-26T12:24:37.310Z,9.50
2023-03-26T12:27:22.748Z,17.27
2023-03-26T12:29:54.990Z,9.23
2023-03-26T12:32:29.707Z,8.30
2023-03-26T12:35:09.024Z,9.37
2023-03-26T12:37:40.830Z,6.97
2023-03-26T12:40:29.307Z,9.00
2023-03-26T12:44:49.557Z,9.70
2023-03-26T12:47:26.501Z,9.27
2023-03-26T12:48:42.896Z,6.23
2023-03-26T12:51:18.794Z,9.30
2023-03-26T12:53:58.797Z,8.10
2023-03-26T12:56:37.022Z,7.87
2023-03-26T12:59:31.558Z,8.63
2023-03-26T13:02:17.702Z,10.03
2023-03-26T13:05:05.025Z,5.33
2023-03-26T13:07:45.480Z,9.73
2023-03-26T13:10:45.473Z,8.47
2023-03-26T13:13:37.307Z,6.13
2023-03-26T13:16:10.632Z,7.17
2023-03-26T13:18:49.220Z,8.00
2023-03-26T13:21:23.954Z,6.47
2023-03-26T13:24:01.419Z,9.03
2023-03-26T13:26:44.545Z,5.23
2023-03-26T13:29:18.677Z,7.93
2023-03-26T13:31:55.995Z,6.93
2023-03-26T13:34:33.472Z,8.77
2023-03-26T13:37:12.777Z,9.20
2023-03-26T13:39:56.744Z,5.80
2023-03-26T13:42:40.552Z,8.30
2023-03-26T13:45:15.584Z,9.07
2023-03-26T13:47:48.545Z,6.57
2023-03-26T13:50:26.371Z,5.70
2023-03-26T13:53:00.392Z,7.93
2023-03-26T13:55:31.933Z,14.00
2023-03-26T13:58:04.886Z,6.97
2023-03-26T14:00:54.422Z,7.50
2023-03-26T14:03:30.081Z,5.90
2023-03-26T14:06:02.990Z,8.13
2023-03-26T14:08:36.841Z,5.80
2023-03-26T14:11:11.029Z,4.93
2023-03-26T14:13:44.708Z,5.37
2023-03-26T14:16:19.756Z,4.93
2023-03-26T14:18:56.127Z,4.93
2023-03-26T14:21:41.670Z,4.20
2023-03-26T14:24:46.958Z,5.80
2023-03-26T14:27:35.004Z,3.67
2023-03-26T14:30:39.152Z,6.90
2023-03-26T14:33:28.038Z,6.23
2023-03-26T14:36:08.011Z,1.33
2023-03-26T14:39:02.150Z,5.37
2023-03-26T14:41:36.415Z,11.07
2023-03-26T14:44:47.639Z,8.00
2023-03-26T14:47:18.935Z,5.40
2023-03-26T14:50:35.812Z,7.57
2023-03-26T14:53:14.759Z,8.07
2023-03-26T14:56:11.668Z,7.50
2023-03-26T14:59:09.795Z,2.20
2023-03-26T15:02:06.203Z,7.20
2023-03-26T15:05:10.748Z,5.70
2023-03-26T15:07:53.705Z,5.53
2023-03-26T15:10:52.578Z,9.37
2023-03-26T15:13:46.845Z,8.27
2023-03-26T15:16:46.685Z,4.93
2023-03-26T15:19:59.746Z,7.60
2023-03-26T15:23:08.232Z,5.73
2023-03-26T15:26:24.450Z,4.07
2023-03-26T15:29:48.360Z,4.40
2023-03-26T15:32:40.573Z,5.57
2023-03-26T15:35:36.679Z,6.67
2023-03-26T15:38:55.325Z,10.77
2023-03-26T15:41:28.253Z,3.80
2023-03-26T15:44:23.993Z,4.17
2023-03-26T15:47:03.069Z,3.40
2023-03-26T15:49:41.026Z,3.80
2023-03-26T15:52:21.115Z,6.20
2023-03-26T15:54:54.192Z,6.80
2023-03-26T15:57:31.255Z,5.97
2023-03-26T16:00:23.139Z,3.30
2023-03-26T16:03:09.970Z,9.20
2023-03-26T16:05:52.458Z,3.27
2023-03-26T16:08:29.295Z,4.10
2023-03-26T16:10:59.404Z,4.57
2023-03-26T16:13:38.814Z,5.80
2023-03-26T16:16:23.118Z,2.33
2023-03-26T16:18:58.418Z,4.33
2023-03-26T16:21:55.438Z,5.77
2023-03-26T16:24:33.885Z,5.40
2023-03-26T16:27:32.167Z,3.43
2023-03-26T16:30:29.095Z,8.70
2023-03-26T16:33:09.617Z,5.33
2023-03-26T16:36:03.686Z,4.20
2023-03-26T16:38:51.902Z,7.33
2023-03-26T16:41:22.120Z,6.37
2023-03-26T16:44:02.211Z,2.40
2023-03-26T16:46:38.221Z,5.53
2023-03-26T16:49:18.676Z,3.80
2023-03-26T16:51:58.420Z,3.97
2023-03-26T16:54:36.255Z,4.47
2023-03-26T16:57:17.391Z,7.23
2023-03-26T17:00:07.376Z,6.13
2023-03-26T17:02:49.128Z,5.27
2023-03-26T17:05:25.791Z,3.13
2023-03-26T17:08:01.333Z,3.30
2023-03-26T17:10:36.417Z,5.87
2023-03-26T17:13:08.864Z,2.80
2023-03-26T17:15:46.992Z,4.57
2023-03-26T17:18:29.097Z,5.63
2023-03-26T17:21:03.417Z,5.60
2023-03-26T17:23:53.303Z,3.13
2023-03-26T17:26:25.365Z,2.90
2023-03-26T17:29:08.988Z,4.37
2023-03-26T17:31:42.459Z,3.63
2023-03-26T17:34:45.758Z,3.07
2023-03-26T17:37:45.840Z,5.07
2023-03-26T17:40:48.617Z,5.97
2023-03-26T17:43:42.786Z,1.53
2023-03-26T17:46:21.705Z,5.40
2023-03-26T17:48:58.259Z,7.77
2023-03-26T17:51:41.167Z,5.37
2023-03-26T17:54:18.652Z,4.17
2023-03-26T17:56:48.069Z,1.07
2023-03-26T17:59:23.499Z,5.57
2023-03-26T18:01:55.435Z,4.23
2023-03-26T18:04:31.815Z,2.23
2023-03-26T18:07:28.240Z,3.90
2023-03-26T18:10:28.829Z,9.77
2023-03-26T18:13:15.349Z,2.87
2023-03-26T18:15:52.609Z,6.57
2023-03-26T18:18:24.346Z,2.00
2023-03-26T18:23:26.507Z,8.13
2023-03-26T18:26:09.397Z,5.73
2023-03-26T18:28:43.047Z,3.00
2023-03-26T18:31:18.709Z,6.57
2023-03-26T18:33:48.263Z,5.93
2023-03-26T18:36:18.510Z,4.67
2023-03-26T18:38:46.939Z,4.07
2023-03-26T18:41:25.086Z,5.20
2023-03-26T18:43:52.993Z,3.50
2023-03-26T18:46:25.120Z,4.60
2023-03-26T18:48:55.187Z,4.90
2023-03-26T18:51:23.807Z,5.50
2023-03-26T18:53:53.518Z,3.57
2023-03-26T18:56:36.249Z,3.30
2023-03-26T18:59:06.148Z,2.33
2023-03-26T19:01:36.945Z,5.17
2023-03-26T19:04:07.967Z,3.33
2023-03-26T19:06:41.167Z,4.97
2023-03-26T19:09:27.944Z,6.20
2023-03-26T19:12:06.701Z,6.07
2023-03-26T19:14:36.909Z,6.87
2023-03-26T19:17:07.501Z,5.80
2023-03-26T19:19:38.712Z,3.40
2023-03-26T19:22:07.879Z,1.83
2023-03-26T19:24:36.235Z,6.13
2023-03-26T19:27:05.967Z,3.70
2023-03-26T19:29:36.265Z,3.27
2023-03-26T19:32:06.339Z,9.93
2023-03-26T19:34:37.301Z,3.77
2023-03-26T19:37:19.041Z,6.30
2023-03-26T19:39:49.533Z,5.17
2023-03-26T19:42:21.418Z,6.17
2023-03-26T19:44:50.507Z,9.77
2023-03-26T19:47:26.791Z,5.77
2023-03-26T19:50:02.597Z,3.03
2023-03-26T19:52:35.834Z,6.70
2023-03-26T19:55:17.996Z,3.00
2023-03-26T19:57:47.542Z,3.07
2023-03-26T20:00:16.147Z,3.73
2023-03-26T20:02:46.535Z,5.53
2023-03-26T20:05:22.912Z,6.13
2023-03-26T20:07:51.214Z,8.30
2023-03-26T20:10:19.471Z,2.57
2023-03-26T20:12:48.810Z,7.40
2023-03-26T20:15:21.102Z,2.73
2023-03-26T20:17:50.182Z,4.77
2023-03-26T20:20:18.212Z,5.77
2023-03-26T20:22:47.031Z,5.97
2023-03-26T20:25:20.845Z,3.23
2023-03-26T20:27:53.076Z,3.77
2023-03-26T20:30:36.399Z,7.93
2023-03-26T20:33:12.115Z,2.37
2023-03-26T20:35:42.685Z,4.43
2023-03-26T20:38:10.427Z,4.30
2023-03-26T20:40:39.209Z,3.83
2023-03-26T20:43:12.842Z,5.33
2023-03-26T20:45:41.598Z,4.30
2023-03-26T20:48:10.518Z,3.93
2023-03-26T20:50:49.967Z,7.17
2023-03-26T20:53:19.088Z,0.40
2023-03-26T20:55:49.285Z,3.80
2023-03-26T20:58:31.088Z,6.67
2023-03-26T21:01:01.746Z,3.13
2023-03-26T21:03:29.908Z,3.03
2023-03-26T21:06:01.132Z,4.53
2023-03-26T21:08:35.330Z,6.73
2023-03-26T21:11:05.351Z,1.97
2023-03-26T21:13:38.584Z,5.17
2023-03-26T21:16:08.007Z,8.00
2023-03-26T21:18:36.928Z,4.07
2023-03-26T21:21:21.542Z,4.03
2023-03-26T21:24:00.189Z,3.27
2023-03-26T21:26:31.981Z,7.73
2023-03-26T21:29:02.304Z,5.77
2023-03-26T21:31:31.437Z,5.73
2023-03-26T21:33:59.689Z,3.60
2023-03-26T21:36:28.195Z,3.27
2023-03-26T21:38:56.676Z,5.70
2023-03-26T21:41:36.016Z,2.67
2023-03-26T21:44:05.490Z,4.40
2023-03-26T21:46:34.117Z,7.73
2023-03-26T21:49:02.550Z,2.47
2023-03-26T21:51:32.053Z,6.90
2023-03-26T21:54:00.525Z,4.33
2023-03-26T21:56:42.937Z,2.60
2023-03-26T21:59:22.975Z,6.33
2023-03-26T22:01:57.552Z,1.07
2023-03-26T22:04:33.008Z,1.80
2023-03-26T22:07:06.080Z,3.53
2023-03-26T22:09:36.511Z,1.27
2023-03-26T22:12:04.861Z,2.63
2023-03-26T22:14:34.434Z,3.13
2023-03-26T22:17:02.263Z,1.90
2023-03-26T22:19:30.665Z,2.33
2023-03-26T22:22:00.075Z,3.27
2023-03-26T22:24:28.098Z,3.47
2023-03-26T22:26:56.144Z,0.67
2023-03-26T22:29:24.101Z,4.23
2023-03-26T22:31:53.245Z,2.20
2023-03-26T22:34:21.241Z,0.90
2023-03-26T22:36:49.104Z,1.37
2023-03-26T22:39:17.242Z,1.03
2023-03-26T22:41:45.069Z,4.27
2023-03-26T22:44:20.182Z,4.17
2023-03-26T22:46:49.413Z,3.00
2023-03-26T22:49:19.038Z,0.67
2023-03-26T22:51:47.017Z,7.20
2023-03-26T22:54:14.785Z,5.40
2023-03-26T22:56:43.672Z,4.70
2023-03-26T22:59:11.517Z,3.50
2023-03-26T23:01:39.385Z,2.07
2023-03-26T23:04:07.317Z,3.97
2023-03-26T23:06:36.697Z,5.43
2023-03-26T23:09:07.106Z,3.17
2023-03-26T23:11:34.928Z,5.37
2023-03-26T23:14:02.812Z,4.53
2023-03-26T23:16:31.662Z,3.50
2023-03-26T23:18:59.446Z,1.70
2023-03-26T23:21:27.397Z,0.40
2023-03-26T23:23:56.544Z,5.00
2023-03-26T23:26:24.409Z,3.07
2023-03-26T23:28:52.569Z,3.93
2023-03-26T23:31:20.440Z,3.07
2023-03-26T23:33:50.284Z,3.90
2023-03-26T23:36:20.163Z,1.67
2023-03-26T23:38:49.436Z,4.53
2023-03-26T23:41:21.620Z,4.40
2023-03-26T23:43:55.542Z,2.50
2023-03-26T23:46:25.089Z,2.50
2023-03-26T23:48:53.519Z,6.07
2023-03-26T23:51:22.333Z,1.60
2023-03-26T23:53:50.632Z,3.47
2023-03-26T23:56:20.211Z,4.57
2023-03-26T23:58:48.870Z,4.03
